Aeroporto :
LOGIN :

Iscrizione | Disclaimer

   EN    FR    IT 

 










Sommario :    VFR   VFR Marginale   IFR   IFR Intensivo   IFR Molto Intensivo
Visibilità : 
Base nubi : 
>= 8 km
>= 3000ft
5 / 8 km
1000 / 3000 ft
1500m / 5 km
500 / 1000 ft
800 / 1500m
200 / 500 ft
< 800m
< 200 ft
Simboli :   Temporali  Nebbia  Neve Forte  Precipitazioni Forti  Vento > 20 kt
SIGMETs :   Varie  Temporali  Ghiacco  Turbolenza  Onda orograficha  Ceneri Vulcaniche






- Altitudine del aeroporto : 12 ft
- Codice IATA : NCE


LFMN - Nice

ULTIMO METAR :
  • 211630Z 09009KT 9999 FEW030 SCT260 14/10 Q1024 NOSIG

METARs OBSOLETI :
  • 211600Z 09008KT CAVOK 14/10 Q1024 NOSIG
  • 211530Z 10008KT CAVOK 14/09 Q1024 NOSIG
  • 211500Z 11008KT CAVOK 15/09 Q1024 NOSIG
  • 211430Z 12008KT CAVOK 15/10 Q1024 NOSIG
  • 211400Z 11008KT CAVOK 15/09 Q1024 NOSIG

TAF TAF LFMN
Valido dal 21 a 15 ore il 22 a 21 ore UTC


211400Z 2115/2221 11010KT CAVOK
BECMG 2118/2120 34010KT
TEMPO 2120/2209 BKN014
BECMG 2212/2214 20010KT 9999 SCT014
BECMG 2219/2221 34010KT
ATIS : +33 4 93 17 21 16



MetMap, La meteo Aeronautica in un colpo d'occhio ! - Copyright ORBIFLY Dicembre 2007 - Disclaimer

ORBIFLY MET'MAP TEAM :

Programmazione e sviluppo : Alexandra Zaïnal
Concezione : Baudouin d'Aumeries
Aiuto per la programmazione : Marc-Olivier Méhu
Supporto tecnico e logistico : Manuel Goepfert
Aiuto per la traduzione : Arnaldo La Scala

Contatto : metmap@orbifly.com




FONTI E CREDITI :

   NOAA